Time;durP1;ratioP1;P1;durP2;ratioP2;P2;SDS_P1;SDS_P2;PMS_P1;PMS_P2;Temp;Humidity;BMP_temperature;BMP_pressure;BME280_temperature;BME280_humidity;BME280_pressure;Samples;Min_cycle;Max_cycle;Signal;HPM_P1;HPM_P2
2022/09/15 00:01:40;;;;;;;7.82;3.90;;;15.40;99.90;;;;;;5147408;27;20464;-75
2022/09/15 00:04:06;;;;;;;6.28;3.20;;;15.40;99.90;;;;;;5169151;27;20071;-74
2022/09/15 00:06:33;;;;;;;6.15;3.35;;;15.50;99.90;;;;;;5172667;27;20034;-75
2022/09/15 00:08:59;;;;;;;11.15;3.13;;;15.40;99.90;;;;;;5163746;27;20034;-75
2022/09/15 00:11:29;;;;;;;7.10;3.30;;;15.50;99.90;;;;;;5173119;27;20041;-75
2022/09/15 00:13:57;;;;;;;9.68;3.40;;;15.50;99.90;;;;;;5164603;27;20030;-74
2022/09/15 00:16:24;;;;;;;9.10;3.13;;;15.40;99.90;;;;;;5176436;27;20129;-75
2022/09/15 00:18:50;;;;;;;6.53;3.25;;;15.40;99.90;;;;;;5175977;27;20050;-75
2022/09/15 00:21:20;;;;;;;9.43;3.00;;;15.70;99.90;;;;;;5158252;27;20046;-75
2022/09/15 00:23:46;;;;;;;8.35;3.10;;;15.40;99.90;;;;;;5175620;27;20490;-75
2022/09/15 00:26:14;;;;;;;7.00;2.80;;;15.40;99.90;;;;;;5177014;27;20042;-75
2022/09/15 00:28:41;;;;;;;7.72;2.90;;;15.30;99.90;;;;;;5158462;27;20069;-74
2022/09/15 00:31:10;;;;;;;8.02;2.85;;;15.50;99.90;;;;;;5176230;27;20042;-75
2022/09/15 00:33:36;;;;;;;6.05;2.53;;;15.40;99.90;;;;;;5177240;27;20047;-74
2022/09/15 00:36:05;;;;;;;7.32;2.58;;;15.40;99.90;;;;;;5163834;27;20121;-75
2022/09/15 00:38:32;;;;;;;6.80;2.20;;;15.30;99.90;;;;;;5159566;27;20042;-74
2022/09/15 00:40:59;;;;;;;7.57;2.40;;;15.30;99.90;;;;;;5176341;27;20081;-74
2022/09/15 00:43:44;;;;;;;6.82;2.20;;;15.40;99.90;;;;;;5158672;27;20042;-75
2022/09/15 00:46:10;;;;;;;5.18;1.92;;;15.30;99.90;;;;;;5174467;27;20051;-75
2022/09/15 00:48:40;;;;;;;6.70;2.00;;;15.30;99.90;;;;;;5177448;27;20077;-74
2022/09/15 00:51:08;;;;;;;9.32;2.45;;;15.40;99.90;;;;;;5160685;27;20113;-74
2022/09/15 00:53:35;;;;;;;8.32;2.25;;;15.40;99.90;;;;;;5156614;27;20093;-75
2022/09/15 00:56:02;;;;;;;7.45;2.33;;;15.40;99.90;;;;;;5156056;27;20057;-74
2022/09/15 00:58:40;;;;;;;7.05;2.22;;;15.40;99.90;;;;;;5160628;27;20113;-74
2022/09/15 01:01:07;;;;;;;5.95;1.98;;;15.40;99.90;;;;;;5176739;27;20063;-74
2022/09/15 01:03:34;;;;;;;8.23;2.13;;;15.40;99.90;;;;;;5162700;27;20038;-74
2022/09/15 01:06:26;;;;;;;7.18;1.83;;;15.50;99.90;;;;;;5148716;27;20039;-75
2022/09/15 01:09:10;;;;;;;5.50;1.88;;;15.40;99.90;;;;;;5146679;27;20043;-75
2022/09/15 01:11:37;;;;;;;5.10;1.60;;;15.40;99.90;;;;;;5157783;27;20434;-75
2022/09/15 01:14:03;;;;;;;6.63;1.70;;;15.50;99.90;;;;;;5167510;27;20046;-75
2022/09/15 01:16:38;;;;;;;7.18;1.50;;;15.50;99.90;;;;;;5155591;27;20043;-75
2022/09/15 01:19:29;;;;;;;6.18;1.58;;;15.50;99.90;;;;;;5137901;27;20058;-74
2022/09/15 01:22:47;;;;;;;9.18;2.03;;;15.50;99.90;;;;;;5157833;27;20043;-74
2022/09/15 01:25:30;;;;;;;8.13;1.70;;;15.50;99.90;;;;;;5125821;27;20404;-75
2022/09/15 01:28:13;;;;;;;6.88;1.50;;;15.50;99.90;;;;;;5163386;27;20118;-74
2022/09/15 01:30:43;;;;;;;4.57;1.60;;;15.50;99.90;;;;;;5126076;27;20042;-74
2022/09/15 01:33:27;;;;;;;5.85;1.63;;;16.30;99.90;;;;;;5155518;27;20057;-75
2022/09/15 01:36:03;;;;;;;6.35;1.52;;;15.50;99.90;;;;;;5156341;27;20039;-74
2022/09/15 01:38:53;;;;;;;6.10;1.70;;;15.50;99.90;;;;;;5156335;27;20053;-74
2022/09/15 01:41:41;;;;;;;6.68;1.70;;;15.40;99.90;;;;;;5174568;27;20030;-75
2022/09/15 01:44:12;;;;;;;8.60;1.60;;;15.40;99.90;;;;;;5157865;27;20370;-74
2022/09/15 01:46:46;;;;;;;6.60;2.08;;;15.40;99.90;;;;;;5174078;27;20519;-75
2022/09/15 01:49:16;;;;;;;5.70;1.48;;;15.40;99.90;;;;;;5176534;27;20046;-75
2022/09/15 01:51:44;;;;;;;9.18;1.60;;;15.40;99.90;;;;;;5155905;27;20386;-75
2022/09/15 01:54:12;;;;;;;6.20;1.63;;;15.60;99.90;;;;;;5175440;27;20385;-74
2022/09/15 01:56:39;;;;;;;5.22;1.60;;;15.50;99.90;;;;;;5143525;27;20049;-74
2022/09/15 01:59:05;;;;;;;6.88;2.03;;;15.50;99.90;;;;;;5173745;27;20065;-75
2022/09/15 02:01:57;;;;;;;6.50;1.60;;;15.50;99.90;;;;;;5155017;27;20046;-75
2022/09/15 02:04:28;;;;;;;5.95;1.60;;;15.50;99.90;;;;;;5116010;27;20111;-75
2022/09/15 02:06:57;;;;;;;8.32;1.75;;;15.40;99.90;;;;;;5149521;27;20100;-75
2022/09/15 02:09:35;;;;;;;8.88;1.60;;;15.60;99.90;;;;;;5156446;27;20045;-75
2022/09/15 02:12:11;;;;;;;10.40;1.80;;;16.10;99.90;;;;;;5169610;27;20113;-75
2022/09/15 02:14:50;;;;;;;11.93;1.90;;;15.50;99.90;;;;;;5153935;27;20352;-75
2022/09/15 02:17:19;;;;;;;7.15;1.85;;;15.40;99.90;;;;;;5159635;27;20053;-75
2022/09/15 02:19:56;;;;;;;8.88;1.70;;;15.40;99.90;;;;;;5172889;27;20042;-75
2022/09/15 02:22:30;;;;;;;7.03;1.60;;;15.30;99.90;;;;;;5175092;27;20121;-74
2022/09/15 02:25:11;;;;;;;8.88;1.88;;;15.50;99.90;;;;;;5176323;27;20043;-74
2022/09/15 02:27:44;;;;;;;6.47;1.60;;;15.20;99.90;;;;;;5155940;27;20085;-75
2022/09/15 02:30:14;;;;;;;8.02;1.50;;;15.20;99.90;;;;;;5162387;27;20034;-74
2022/09/15 02:32:58;;;;;;;9.93;2.00;;;15.20;99.90;;;;;;5175029;27;20075;-74
2022/09/15 02:35:27;;;;;;;11.90;2.38;;;15.20;99.90;;;;;;5175039;27;20129;-74
2022/09/15 02:37:54;;;;;;;6.45;1.70;;;15.80;99.90;;;;;;5156621;27;20486;-74
2022/09/15 02:40:20;;;;;;;8.93;1.90;;;15.20;99.90;;;;;;5174349;27;20042;-75
2022/09/15 02:43:00;;;;;;;6.15;1.50;;;15.10;99.90;;;;;;5173643;27;20047;-74
2022/09/15 02:45:26;;;;;;;7.88;1.70;;;15.00;99.90;;;;;;5174601;27;20500;-74
2022/09/15 02:47:52;;;;;;;7.22;1.88;;;14.90;99.90;;;;;;5173416;27;20040;-74
2022/09/15 02:50:19;;;;;;;6.07;1.40;;;15.60;99.90;;;;;;5169771;27;20046;-75
2022/09/15 02:52:45;;;;;;;7.05;1.60;;;14.80;99.90;;;;;;5172074;27;20072;-75
2022/09/15 02:55:11;;;;;;;8.85;1.80;;;14.70;99.90;;;;;;5150831;27;20095;-74
2022/09/15 02:57:37;;;;;;;5.25;1.58;;;14.70;99.90;;;;;;5150556;27;20092;-74
2022/09/15 03:00:14;;;;;;;8.95;1.58;;;15.50;99.90;;;;;;5142498;27;20043;-75
2022/09/15 03:02:48;;;;;;;7.93;1.70;;;14.80;99.90;;;;;;5138836;27;20038;-75
2022/09/15 03:05:16;;;;;;;6.88;1.75;;;15.40;99.90;;;;;;5156747;27;20119;-75
2022/09/15 03:07:42;;;;;;;8.77;1.95;;;14.80;99.90;;;;;;5145061;27;20054;-74
2022/09/15 03:10:10;;;;;;;5.43;1.67;;;14.80;99.90;;;;;;5168290;27;20039;-74
2022/09/15 03:12:41;;;;;;;7.38;1.67;;;14.80;99.90;;;;;;5156160;27;20451;-75
2022/09/15 03:15:08;;;;;;;8.88;2.20;;;15.10;99.90;;;;;;5168987;27;20082;-75
2022/09/15 03:17:40;;;;;;;9.00;1.85;;;14.80;99.90;;;;;;5151330;27;20047;-75
2022/09/15 03:20:07;;;;;;;7.07;1.40;;;14.80;99.90;;;;;;5161500;27;20174;-75
2022/09/15 03:22:33;;;;;;;9.80;2.00;;;14.80;99.90;;;;;;5150323;27;20348;-74
2022/09/15 03:24:59;;;;;;;9.00;2.00;;;14.80;99.90;;;;;;5154108;27;20049;-74
2022/09/15 03:27:25;;;;;;;8.77;1.70;;;14.90;99.90;;;;;;5156038;27;20046;-75
2022/09/15 03:29:51;;;;;;;8.15;1.90;;;14.90;99.90;;;;;;5154011;27;20079;-74
2022/09/15 03:32:17;;;;;;;9.52;2.10;;;14.90;99.90;;;;;;5153149;27;20503;-74
2022/09/15 03:34:43;;;;;;;9.60;2.00;;;14.80;99.90;;;;;;5139271;27;20078;-75
2022/09/15 03:37:08;;;;;;;5.82;1.88;;;14.90;99.90;;;;;;5164749;27;20074;-75
2022/09/15 03:39:34;;;;;;;10.43;2.22;;;14.90;99.90;;;;;;5172760;27;20037;-75
2022/09/15 03:42:00;;;;;;;5.35;1.70;;;14.90;99.90;;;;;;5155437;27;20054;-74
2022/09/15 03:44:26;;;;;;;7.40;1.88;;;15.70;99.90;;;;;;5173629;27;20034;-75
2022/09/15 03:46:51;;;;;;;10.02;2.30;;;14.90;99.90;;;;;;5157820;27;20056;-75
2022/09/15 03:49:17;;;;;;;7.13;1.92;;;15.30;99.90;;;;;;5160834;27;20153;-74
2022/09/15 03:51:43;;;;;;;8.60;1.80;;;14.90;99.90;;;;;;5175301;27;20034;-75
2022/09/15 03:54:12;;;;;;;8.50;1.90;;;14.90;99.90;;;;;;5177498;27;20034;-74
2022/09/15 03:56:37;;;;;;;8.20;1.63;;;14.90;99.90;;;;;;5177172;27;20035;-75
2022/09/15 03:59:04;;;;;;;5.60;1.92;;;14.90;99.90;;;;;;5157686;27;20038;-75
2022/09/15 04:01:31;;;;;;;8.25;1.85;;;15.30;99.90;;;;;;5156744;27;20039;-75
2022/09/15 04:03:57;;;;;;;7.47;1.73;;;14.90;99.90;;;;;;5156979;27;20483;-75
2022/09/15 04:06:24;;;;;;;7.10;1.80;;;15.00;99.90;;;;;;5164498;27;20116;-74
2022/09/15 04:08:50;;;;;;;13.57;2.13;;;14.90;99.90;;;;;;5163947;27;20035;-75
2022/09/15 04:11:17;;;;;;;8.85;1.80;;;15.10;99.90;;;;;;5156621;27;20117;-75
2022/09/15 04:13:44;;;;;;;9.38;2.50;;;14.90;99.90;;;;;;5162740;27;20061;-74
2022/09/15 04:16:13;;;;;;;6.53;1.80;;;14.80;99.90;;;;;;5169741;27;20042;-75
2022/09/15 04:18:39;;;;;;;9.00;1.80;;;15.10;99.90;;;;;;5152649;27;20037;-75
2022/09/15 04:21:11;;;;;;;9.77;1.80;;;14.80;99.90;;;;;;5150663;27;20034;-74
2022/09/15 04:23:38;;;;;;;9.02;1.92;;;14.80;99.90;;;;;;5126022;27;20043;-74
2022/09/15 04:26:06;;;;;;;7.22;2.03;;;15.70;99.90;;;;;;5156796;27;20419;-75
2022/09/15 04:28:35;;;;;;;9.80;1.77;;;15.50;99.90;;;;;;5156774;27;20126;-75
2022/09/15 04:31:05;;;;;;;8.18;2.00;;;14.80;99.90;;;;;;5149287;27;20071;-75
2022/09/15 04:33:32;;;;;;;7.93;1.77;;;14.80;99.90;;;;;;5146431;27;20103;-75
2022/09/15 04:36:09;;;;;;;10.27;2.15;;;15.30;99.90;;;;;;5136873;27;20072;-74
2022/09/15 04:38:35;;;;;;;15.07;2.05;;;14.80;99.90;;;;;;5133068;27;20054;-74
2022/09/15 04:41:01;;;;;;;6.85;1.65;;;14.90;99.90;;;;;;5155400;27;20054;-75
2022/09/15 04:43:27;;;;;;;10.88;2.03;;;14.90;99.90;;;;;;5156075;27;20039;-74
2022/09/15 04:45:54;;;;;;;7.47;1.80;;;14.80;99.90;;;;;;5156233;27;20073;-75
2022/09/15 04:48:21;;;;;;;11.73;2.08;;;14.90;99.90;;;;;;5155441;27;20486;-74
2022/09/15 04:50:47;;;;;;;11.05;1.95;;;14.90;99.90;;;;;;5136251;27;20134;-75
2022/09/15 04:53:13;;;;;;;12.82;2.30;;;14.80;99.90;;;;;;5156514;27;20125;-75
2022/09/15 04:55:39;;;;;;;7.72;2.13;;;14.80;99.90;;;;;;5139437;27;20066;-75
2022/09/15 04:58:04;;;;;;;9.02;2.00;;;14.90;99.90;;;;;;5156269;27;20031;-75
2022/09/15 05:00:33;;;;;;;7.65;1.92;;;14.90;99.90;;;;;;5155777;27;20097;-74
2022/09/15 05:02:59;;;;;;;8.68;1.60;;;14.90;99.90;;;;;;5154798;27;20435;-74
2022/09/15 05:05:25;;;;;;;9.70;2.22;;;14.90;99.90;;;;;;5169815;27;20046;-75
2022/09/15 05:07:51;;;;;;;6.05;1.80;;;14.90;99.90;;;;;;5139194;27;20117;-75
2022/09/15 05:10:18;;;;;;;7.38;1.80;;;14.90;99.90;;;;;;5155902;27;20058;-75
2022/09/15 05:12:44;;;;;;;8.90;2.03;;;15.20;99.90;;;;;;5141875;27;20051;-75
2022/09/15 05:15:10;;;;;;;7.72;1.70;;;14.90;99.90;;;;;;5120517;27;20487;-75
2022/09/15 05:17:36;;;;;;;11.80;1.83;;;14.80;99.90;;;;;;5155572;27;20074;-75
2022/09/15 05:20:03;;;;;;;9.82;2.00;;;14.80;99.90;;;;;;5174292;27;20106;-75
2022/09/15 05:22:30;;;;;;;7.05;1.90;;;14.80;99.90;;;;;;5176356;27;20103;-75
2022/09/15 05:24:55;;;;;;;8.48;1.95;;;15.50;99.90;;;;;;5155404;27;20053;-75
2022/09/15 05:27:21;;;;;;;6.50;1.70;;;15.00;99.90;;;;;;5155652;27;20485;-75
2022/09/15 05:29:47;;;;;;;10.20;1.70;;;14.70;99.90;;;;;;5157468;27;20502;-75
2022/09/15 05:32:12;;;;;;;11.60;2.10;;;14.70;99.90;;;;;;5172369;27;20054;-75
2022/09/15 05:34:38;;;;;;;9.68;1.85;;;14.70;99.90;;;;;;5166379;27;20042;-75
2022/09/15 05:37:04;;;;;;;11.00;2.20;;;14.70;99.90;;;;;;5175633;27;20114;-75
2022/09/15 05:39:29;;;;;;;10.15;1.92;;;15.00;99.90;;;;;;5169746;27;20093;-75
2022/09/15 05:41:55;;;;;;;6.93;2.50;;;15.30;99.90;;;;;;5163250;27;20386;-75
2022/09/15 05:44:21;;;;;;;8.40;1.83;;;14.80;99.90;;;;;;5169592;27;20043;-75
2022/09/15 05:46:48;;;;;;;10.65;2.10;;;14.80;99.90;;;;;;5155808;27;20440;-75
2022/09/15 05:49:13;;;;;;;7.40;1.65;;;14.90;99.90;;;;;;5145707;27;20042;-75
2022/09/15 05:51:39;;;;;;;8.93;1.75;;;14.90;99.90;;;;;;5166261;27;20435;-75
2022/09/15 05:54:05;;;;;;;7.53;1.80;;;15.50;99.90;;;;;;5170951;27;20039;-75
2022/09/15 05:56:31;;;;;;;7.93;1.90;;;15.20;99.90;;;;;;5153926;27;20129;-75
2022/09/15 05:58:57;;;;;;;13.60;2.33;;;15.40;99.90;;;;;;5154949;27;20055;-75
2022/09/15 06:01:26;;;;;;;6.80;1.98;;;15.30;99.90;;;;;;5131972;27;20047;-75
2022/09/15 06:03:53;;;;;;;11.32;1.95;;;15.80;99.90;;;;;;5134239;27;20051;-75
2022/09/15 06:06:20;;;;;;;6.82;1.80;;;15.40;99.90;;;;;;5144393;27;20537;-77
2022/09/15 06:08:49;;;;;;;6.25;2.10;;;15.10;99.90;;;;;;5139541;27;20050;-76
2022/09/15 06:11:18;;;;;;;15.05;2.35;;;15.10;99.90;;;;;;5133591;27;20137;-76
2022/09/15 06:13:45;;;;;;;10.02;2.17;;;15.20;99.90;;;;;;5133746;27;20411;-75
2022/09/15 06:16:19;;;;;;;6.18;1.80;;;15.20;99.90;;;;;;5133822;27;20137;-76
2022/09/15 06:18:50;;;;;;;9.50;2.17;;;15.30;99.90;;;;;;5115469;27;20122;-75
2022/09/15 06:21:24;;;;;;;8.48;1.77;;;15.40;99.90;;;;;;5142587;27;20042;-75
2022/09/15 06:23:54;;;;;;;7.28;2.47;;;15.70;99.90;;;;;;5167358;27;20038;-75
2022/09/15 06:26:20;;;;;;;9.23;2.00;;;15.40;99.90;;;;;;5156884;27;20054;-76
2022/09/15 06:28:48;;;;;;;9.27;1.90;;;15.90;99.90;;;;;;5175424;27;20490;-76
2022/09/15 06:31:14;;;;;;;8.98;1.60;;;15.70;99.90;;;;;;5173029;27;20042;-75
2022/09/15 06:33:42;;;;;;;7.50;1.70;;;15.40;99.90;;;;;;5153881;27;20047;-76
2022/09/15 06:36:10;;;;;;;6.40;1.60;;;15.40;99.90;;;;;;5153514;27;20047;-75
2022/09/15 06:38:36;;;;;;;6.30;1.65;;;15.50;99.90;;;;;;5153770;27;20043;-76
2022/09/15 06:41:02;;;;;;;7.07;1.83;;;15.50;99.90;;;;;;5153006;27;20065;-75
2022/09/15 06:43:30;;;;;;;6.65;1.60;;;15.50;99.90;;;;;;5154229;27;20439;-76
2022/09/15 06:46:10;;;;;;;6.32;2.17;;;15.60;99.90;;;;;;5135525;27;20051;-75
2022/09/15 06:48:37;;;;;;;8.23;1.60;;;15.80;99.90;;;;;;5152699;27;20050;-75
2022/09/15 06:51:05;;;;;;;7.40;1.30;;;15.60;99.90;;;;;;5155825;27;20103;-75
2022/09/15 06:53:32;;;;;;;6.28;1.60;;;15.70;99.90;;;;;;5170465;27;20046;-76
2022/09/15 06:56:06;;;;;;;3.20;1.27;;;15.70;99.90;;;;;;5162990;27;20034;-76
2022/09/15 06:58:37;;;;;;;7.75;1.77;;;15.70;99.90;;;;;;5151258;27;20074;-75
2022/09/15 07:01:04;;;;;;;6.75;1.35;;;16.20;99.90;;;;;;5137982;27;20035;-75
2022/09/15 07:03:30;;;;;;;5.47;1.40;;;15.90;99.90;;;;;;5156100;27;20483;-75
2022/09/15 07:05:56;;;;;;;6.82;1.50;;;16.10;99.90;;;;;;5164952;27;20482;-75
2022/09/15 07:08:22;;;;;;;5.07;1.52;;;16.20;99.90;;;;;;5162006;27;20046;-75
2022/09/15 07:10:47;;;;;;;6.18;1.75;;;16.10;99.90;;;;;;5158018;27;20066;-75
2022/09/15 07:13:13;;;;;;;5.07;1.50;;;16.30;99.90;;;;;;5140446;27;20118;-75
2022/09/15 07:15:39;;;;;;;5.45;1.33;;;16.50;99.90;;;;;;5137016;27;20114;-75
2022/09/15 07:18:05;;;;;;;4.45;1.20;;;16.50;99.90;;;;;;5153289;27;20122;-75
2022/09/15 07:20:33;;;;;;;4.30;1.33;;;16.70;99.90;;;;;;5141407;27;20050;-75
2022/09/15 07:22:58;;;;;;;5.90;1.30;;;16.80;99.90;;;;;;5173392;27;20050;-75
2022/09/15 07:25:24;;;;;;;4.43;1.73;;;16.80;99.90;;;;;;5177741;27;20461;-75
2022/09/15 07:27:50;;;;;;;5.93;1.42;;;16.90;99.90;;;;;;5177151;27;20053;-75
2022/09/15 07:30:15;;;;;;;4.45;1.35;;;17.00;99.90;;;;;;5156982;27;20043;-76
2022/09/15 07:32:41;;;;;;;4.18;1.20;;;16.90;99.90;;;;;;5130912;27;20047;-75
2022/09/15 07:35:07;;;;;;;6.22;1.35;;;16.80;99.90;;;;;;5171260;27;20043;-75
2022/09/15 07:37:33;;;;;;;5.22;1.48;;;16.70;99.90;;;;;;5137030;27;20052;-75
2022/09/15 07:39:59;;;;;;;7.00;1.58;;;16.70;99.90;;;;;;5136859;27;20046;-75
2022/09/15 07:42:24;;;;;;;4.85;1.60;;;16.60;99.90;;;;;;5113983;27;20039;-75
2022/09/15 07:44:50;;;;;;;8.68;1.92;;;16.60;99.90;;;;;;5150611;27;20083;-75
2022/09/15 07:47:20;;;;;;;7.75;1.77;;;16.50;99.90;;;;;;5157922;27;20482;-75
2022/09/15 07:49:46;;;;;;;6.88;2.03;;;16.50;99.90;;;;;;5157085;27;20125;-75
2022/09/15 07:52:11;;;;;;;7.93;1.60;;;16.50;99.90;;;;;;5138886;27;20073;-75
2022/09/15 07:54:37;;;;;;;5.07;1.50;;;16.40;99.90;;;;;;5157576;27;20053;-76
2022/09/15 07:57:05;;;;;;;6.30;1.60;;;16.90;99.90;;;;;;5138388;27;20050;-76
2022/09/15 07:59:31;;;;;;;7.88;2.00;;;16.10;99.90;;;;;;5121340;27;20058;-76
2022/09/15 08:01:57;;;;;;;6.60;1.73;;;16.00;99.90;;;;;;5164742;27;20083;-76
2022/09/15 08:04:23;;;;;;;7.60;1.90;;;16.00;99.90;;;;;;5176149;27;20391;-76
2022/09/15 08:06:48;;;;;;;8.93;1.95;;;16.00;99.90;;;;;;5169604;27;20542;-76
2022/09/15 08:09:16;;;;;;;6.32;2.03;;;16.10;99.90;;;;;;5138560;27;20039;-76
2022/09/15 08:11:42;;;;;;;8.77;2.10;;;16.80;99.90;;;;;;5151840;27;20050;-75
2022/09/15 08:14:08;;;;;;;6.78;1.80;;;16.30;99.90;;;;;;5122577;27;20034;-76
2022/09/15 08:16:35;;;;;;;7.70;2.45;;;16.40;99.90;;;;;;5160976;27;20050;-76
2022/09/15 08:19:00;;;;;;;7.47;1.88;;;16.60;99.90;;;;;;5155510;27;20047;-76
2022/09/15 08:21:27;;;;;;;9.18;1.90;;;16.80;99.90;;;;;;5155975;27;20129;-77
2022/09/15 08:23:57;;;;;;;12.30;2.13;;;17.40;99.90;;;;;;5155432;27;20502;-77
2022/09/15 08:26:24;;;;;;;8.40;1.80;;;17.30;99.90;;;;;;5173176;27;20074;-77
2022/09/15 08:28:51;;;;;;;6.47;1.90;;;17.30;99.90;;;;;;5138268;27;20125;-77
2022/09/15 08:31:19;;;;;;;8.10;2.22;;;17.40;99.90;;;;;;5154713;27;20034;-78
2022/09/15 08:33:50;;;;;;;9.70;2.10;;;17.40;99.90;;;;;;5142287;27;20559;-77
2022/09/15 08:36:16;;;;;;;6.38;1.80;;;17.40;99.90;;;;;;5146424;27;20046;-78
2022/09/15 08:38:43;;;;;;;7.68;1.60;;;17.30;99.90;;;;;;5134232;27;20501;-77
2022/09/15 08:41:34;;;;;;;10.50;1.95;;;17.30;99.90;;;;;;5147092;27;20220;-77
2022/09/15 08:44:19;;;;;;;9.43;1.80;;;17.40;99.90;;;;;;5156146;27;20054;-77
2022/09/15 08:47:03;;;;;;;9.85;1.92;;;17.50;99.90;;;;;;5150517;27;20345;-78
2022/09/15 08:50:09;;;;;;;5.93;1.67;;;17.70;99.90;;;;;;5137025;27;20035;-78
2022/09/15 08:53:02;;;;;;;7.03;1.58;;;17.80;99.90;;;;;;5143181;27;20073;-77
2022/09/15 08:55:44;;;;;;;9.60;1.83;;;17.90;99.90;;;;;;5156378;27;20148;-77
2022/09/15 08:58:19;;;;;;;10.77;1.85;;;18.00;99.90;;;;;;5156646;27;20039;-77
2022/09/15 09:00:50;;;;;;;7.22;1.70;;;18.00;99.90;;;;;;5160115;27;20034;-76
2022/09/15 09:03:39;;;;;;;6.05;1.65;;;17.90;99.90;;;;;;5158096;27;20079;-78
2022/09/15 09:06:23;;;;;;;6.82;1.80;;;17.90;99.90;;;;;;5168520;27;20042;-77
2022/09/15 09:09:25;;;;;;;7.85;2.42;;;17.60;99.90;;;;;;5142546;27;20049;-76
2022/09/15 09:12:09;;;;;;;5.63;1.88;;;17.30;99.90;;;;;;5157563;27;20054;-74
2022/09/15 09:14:56;;;;;;;7.38;2.10;;;16.90;99.90;;;;;;5155375;27;20471;-75
2022/09/15 09:18:03;;;;;;;6.22;1.50;;;16.70;99.90;;;;;;5154124;27;20057;-75
2022/09/15 09:21:03;;;;;;;7.50;1.98;;;16.70;99.90;;;;;;5102952;27;20055;-75
2022/09/15 09:23:41;;;;;;;7.65;1.95;;;16.70;99.90;;;;;;5155826;27;20049;-77
2022/09/15 09:26:10;;;;;;;5.78;1.90;;;16.80;99.90;;;;;;5132265;27;20042;-77
2022/09/15 09:28:46;;;;;;;7.32;1.77;;;16.80;99.90;;;;;;5151731;27;20417;-76
2022/09/15 09:31:20;;;;;;;8.77;1.67;;;16.80;99.90;;;;;;5145205;27;20131;-75
2022/09/15 09:33:59;;;;;;;8.10;2.00;;;17.20;99.90;;;;;;5115289;27;20130;-76
2022/09/15 09:36:25;;;;;;;9.00;2.15;;;16.80;99.90;;;;;;5124165;27;20064;-77
2022/09/15 09:38:52;;;;;;;7.38;2.10;;;16.80;99.90;;;;;;5131556;27;20046;-76
2022/09/15 09:41:26;;;;;;;7.78;2.10;;;16.70;99.90;;;;;;5133823;27;20105;-77
2022/09/15 09:43:53;;;;;;;5.90;1.77;;;16.60;99.90;;;;;;5125783;27;20052;-77
2022/09/15 09:46:20;;;;;;;12.13;2.45;;;16.60;99.90;;;;;;5107743;28;20043;-75
2022/09/15 09:49:01;;;;;;;6.18;1.60;;;16.60;99.90;;;;;;5113879;28;20088;-75
2022/09/15 09:52:02;;;;;;;5.57;1.58;;;16.60;99.90;;;;;;5113030;28;20169;-76
2022/09/15 09:54:30;;;;;;;4.82;1.60;;;16.50;99.90;;;;;;5090317;28;20047;-75
2022/09/15 09:57:11;;;;;;;7.45;1.58;;;16.50;99.90;;;;;;5113691;28;20054;-75
2022/09/15 09:59:48;;;;;;;8.35;1.77;;;16.50;99.90;;;;;;5112277;28;20126;-76
2022/09/15 10:02:25;;;;;;;6.68;1.95;;;16.70;99.90;;;;;;5113304;28;20054;-76
2022/09/15 10:05:06;;;;;;;6.07;1.88;;;16.90;99.90;;;;;;5111330;28;20054;-76
2022/09/15 10:07:33;;;;;;;4.97;1.75;;;17.20;99.90;;;;;;5110877;28;20051;-77
2022/09/15 10:10:00;;;;;;;5.93;1.85;;;17.50;99.90;;;;;;5113649;28;20092;-77
2022/09/15 10:12:38;;;;;;;6.55;1.80;;;17.90;99.90;;;;;;5108324;28;20484;-77
2022/09/15 10:15:18;;;;;;;6.75;1.90;;;17.80;99.90;;;;;;5091150;28;20048;-77
2022/09/15 10:17:45;;;;;;;10.48;1.92;;;17.70;99.90;;;;;;5090283;28;20050;-78
2022/09/15 10:20:31;;;;;;;5.72;1.60;;;17.70;99.90;;;;;;5091374;28;20039;-77
2022/09/15 10:23:15;;;;;;;6.20;1.52;;;17.70;99.90;;;;;;5107200;28;20058;-77
2022/09/15 10:25:41;;;;;;;8.57;1.77;;;17.90;99.90;;;;;;5109432;28;20051;-76
2022/09/15 10:28:20;;;;;;;8.43;1.90;;;18.10;99.90;;;;;;5111803;28;20460;-75
2022/09/15 10:31:06;;;;;;;4.80;1.35;;;18.00;99.90;;;;;;5112979;28;20420;-76
2022/09/15 10:33:33;;;;;;;5.05;1.40;;;17.70;99.90;;;;;;5148857;27;20125;-77
2022/09/15 10:36:27;;;;;;;5.70;1.45;;;17.90;99.90;;;;;;5152976;27;20472;-76
2022/09/15 10:39:09;;;;;;;5.13;1.50;;;17.10;99.90;;;;;;5146554;27;20111;-76
2022/09/15 10:41:44;;;;;;;4.28;1.38;;;16.90;99.90;;;;;;5135240;27;20402;-78
2022/09/15 10:44:34;;;;;;;7.22;1.60;;;16.80;99.90;;;;;;5154735;27;20122;-78
2022/09/15 10:47:44;;;;;;;6.85;1.70;;;16.90;99.90;;;;;;5134578;27;20047;-78
2022/09/15 10:50:23;;;;;;;9.15;1.75;;;17.00;99.90;;;;;;5053108;28;20059;-77
2022/09/15 10:52:58;;;;;;;6.63;1.70;;;17.00;99.90;;;;;;5036895;28;20049;-77
2022/09/15 10:55:48;;;;;;;5.43;1.45;;;17.20;99.90;;;;;;5108448;27;20478;-78
2022/09/15 10:58:45;;;;;;;4.43;1.40;;;17.10;99.90;;;;;;5152702;27;20064;-75
2022/09/15 11:01:29;;;;;;;2.65;1.20;;;17.00;99.90;;;;;;5109096;27;20055;-77
2022/09/15 11:04:14;;;;;;;3.78;1.38;;;17.00;99.90;;;;;;5115359;28;20177;-77
2022/09/15 11:06:54;;;;;;;4.57;1.10;;;17.10;99.90;;;;;;5133483;28;20407;-75
2022/09/15 11:09:24;;;;;;;3.92;1.25;;;17.10;99.90;;;;;;5115262;28;20527;-76
2022/09/15 11:12:30;;;;;;;5.32;1.23;;;17.20;99.90;;;;;;5133038;28;20145;-76
2022/09/15 11:15:19;;;;;;;3.35;1.33;;;17.40;99.90;;;;;;5110227;27;20135;-75
2022/09/15 11:18:05;;;;;;;4.53;1.40;;;17.60;99.90;;;;;;5137404;27;20043;-75
2022/09/15 11:20:49;;;;;;;5.18;1.52;;;17.70;99.90;;;;;;5149755;27;20536;-75
2022/09/15 11:23:27;;;;;;;7.60;1.90;;;18.00;99.90;;;;;;5133429;28;20499;-76
2022/09/15 11:26:16;;;;;;;4.95;1.70;;;18.20;99.90;;;;;;5133465;28;20122;-76
2022/09/15 11:28:57;;;;;;;4.93;1.40;;;18.30;99.90;;;;;;5132720;28;20051;-75
2022/09/15 11:31:56;;;;;;;4.45;1.70;;;18.40;99.90;;;;;;5132836;28;20173;-76
2022/09/15 11:34:31;;;;;;;7.40;1.83;;;18.60;99.90;;;;;;5114036;28;20047;-76
2022/09/15 11:37:03;;;;;;;;;;;18.70;99.90;;;;;;5114972;28;20051;-76
2022/09/15 11:39:47;;;;;;;6.05;1.55;;;18.90;99.90;;;;;;5137364;27;19926;-76
2022/09/15 11:42:24;;;;;;;6.25;1.35;;;18.90;99.90;;;;;;5150882;27;20045;-75
2022/09/15 11:44:54;;;;;;;5.95;1.40;;;19.10;99.90;;;;;;5154563;27;20053;-77
2022/09/15 11:47:37;;;;;;;3.45;1.50;;;19.40;99.90;;;;;;5135406;27;20042;-75
2022/09/15 11:50:34;;;;;;;6.20;1.58;;;20.00;99.90;;;;;;5151719;27;20064;-77
2022/09/15 11:53:26;;;;;;;4.80;1.50;;;20.10;99.90;;;;;;5134162;27;20543;-75
2022/09/15 11:56:04;;;;;;;3.35;1.50;;;20.10;99.90;;;;;;5136380;27;20046;-76
2022/09/15 11:58:45;;;;;;;7.38;1.60;;;20.10;99.90;;;;;;5137139;27;20050;-76
2022/09/15 12:01:12;;;;;;;5.18;1.40;;;20.20;99.90;;;;;;5137178;27;20150;-76
2022/09/15 12:03:56;;;;;;;3.17;1.35;;;20.50;99.90;;;;;;5136994;27;20046;-76
2022/09/15 12:06:31;;;;;;;4.13;1.40;;;20.50;99.90;;;;;;5136378;27;20050;-76
2022/09/15 12:09:05;;;;;;;4.68;1.40;;;20.40;99.90;;;;;;5137069;27;20514;-76
2022/09/15 12:11:37;;;;;;;4.97;1.50;;;20.30;99.90;;;;;;5136978;27;20058;-76
2022/09/15 12:14:03;;;;;;;3.28;1.40;;;20.60;99.90;;;;;;5136230;27;20043;-76
2022/09/15 12:16:30;;;;;;;5.78;1.30;;;20.80;99.90;;;;;;5118218;27;20050;-76
2022/09/15 12:19:09;;;;;;;4.80;1.25;;;22.10;99.90;;;;;;5138643;27;20047;-77
2022/09/15 12:22:11;;;;;;;6.82;1.40;;;23.20;99.50;;;;;;5103120;27;20059;-75
2022/09/15 12:24:52;;;;;;;2.83;1.15;;;24.00;98.80;;;;;;5142086;27;20122;-76
2022/09/15 12:27:20;;;;;;;5.68;1.52;;;24.50;96.50;;;;;;5139531;27;20046;-76
2022/09/15 12:29:50;;;;;;;6.80;1.50;;;24.40;96.60;;;;;;5123897;27;20065;-76
2022/09/15 12:32:19;;;;;;;5.60;1.55;;;24.40;96.20;;;;;;5139675;27;20051;-76
2022/09/15 12:35:23;;;;;;;9.57;1.25;;;23.90;97.10;;;;;;5143321;27;20051;-74
2022/09/15 12:37:54;;;;;;;5.05;1.58;;;23.50;97.90;;;;;;5138356;27;20045;-77
2022/09/15 12:40:28;;;;;;;5.38;1.50;;;22.90;98.70;;;;;;5141251;27;20047;-77
2022/09/15 12:42:55;;;;;;;7.53;1.50;;;22.40;99.20;;;;;;5144233;27;20144;-74
2022/09/15 12:45:30;;;;;;;4.90;1.48;;;21.80;99.50;;;;;;5139667;27;20068;-77
2022/09/15 12:48:03;;;;;;;8.95;1.67;;;21.50;99.90;;;;;;5124951;27;20506;-76
2022/09/15 12:50:39;;;;;;;5.45;1.42;;;22.00;99.90;;;;;;5139591;27;20071;-76
2022/09/15 12:53:30;;;;;;;8.15;1.50;;;23.20;99.50;;;;;;5121604;27;20071;-76
2022/09/15 12:55:59;;;;;;;6.63;1.52;;;23.50;98.90;;;;;;5141581;27;20039;-75
2022/09/15 12:58:34;;;;;;;4.93;1.35;;;23.10;99.00;;;;;;5141606;27;20039;-75
2022/09/15 13:01:17;;;;;;;8.07;1.60;;;22.60;99.60;;;;;;5140011;27;20058;-75
2022/09/15 13:03:44;;;;;;;10.25;1.90;;;22.10;99.90;;;;;;5139190;27;20287;-75
2022/09/15 13:06:09;;;;;;;8.07;1.60;;;21.60;99.90;;;;;;5120487;27;20039;-75
2022/09/15 13:08:35;;;;;;;7.30;1.77;;;21.30;99.90;;;;;;5117410;27;20095;-76
2022/09/15 13:11:15;;;;;;;5.68;1.50;;;21.10;99.90;;;;;;5133200;27;20411;-75
2022/09/15 13:14:02;;;;;;;8.90;1.92;;;20.70;99.90;;;;;;5136175;27;20046;-76